createdAt,value
2023-05-20T00:01:34.320Z,2.50
2023-05-20T00:04:01.047Z,2.55
2023-05-20T00:06:27.730Z,2.60
2023-05-20T00:08:54.339Z,2.72
2023-05-20T00:11:20.877Z,2.80
2023-05-20T00:13:48.660Z,2.70
2023-05-20T00:16:15.147Z,2.70
2023-05-20T00:18:41.667Z,2.60
2023-05-20T00:21:08.140Z,2.83
2023-05-20T00:23:34.599Z,2.42
2023-05-20T00:26:01.139Z,2.95
2023-05-20T00:28:27.654Z,2.50
2023-05-20T00:30:55.865Z,2.35
2023-05-20T00:33:22.285Z,2.50
2023-05-20T00:35:48.838Z,2.47
2023-05-20T00:38:15.319Z,2.33
2023-05-20T00:40:41.902Z,2.50
2023-05-20T00:43:10.172Z,2.38
2023-05-20T00:45:37.445Z,2.70
2023-05-20T00:48:06.590Z,2.75
2023-05-20T00:50:33.720Z,2.72
2023-05-20T00:53:00.258Z,2.33
2023-05-20T00:55:26.867Z,2.50
2023-05-20T00:57:54.139Z,2.50
2023-05-20T01:00:20.790Z,2.67
2023-05-20T01:02:47.477Z,2.17
2023-05-20T01:05:15.348Z,2.92
2023-05-20T01:07:42.309Z,2.80
2023-05-20T01:10:09.642Z,2.53
2023-05-20T01:12:42.632Z,2.35
2023-05-20T01:15:11.600Z,2.20
2023-05-20T01:17:40.930Z,2.15
2023-05-20T01:20:09.134Z,2.15
2023-05-20T01:22:38.352Z,2.40
2023-05-20T01:25:05.211Z,2.58
2023-05-20T01:27:31.774Z,2.60
2023-05-20T01:29:58.324Z,2.45
2023-05-20T01:32:28.082Z,2.58
2023-05-20T01:34:56.457Z,2.55
2023-05-20T01:37:24.467Z,2.55
2023-05-20T01:39:53.844Z,2.20
2023-05-20T01:42:20.825Z,2.40
2023-05-20T01:44:47.504Z,2.60
2023-05-20T01:47:14.082Z,2.35
2023-05-20T01:49:40.552Z,2.35
2023-05-20T01:52:07.056Z,2.08
2023-05-20T01:54:33.502Z,2.30
2023-05-20T01:57:01.359Z,2.33
2023-05-20T01:59:27.804Z,2.10
2023-05-20T02:01:54.334Z,2.08
2023-05-20T02:04:20.812Z,2.13
2023-05-20T02:06:47.255Z,2.15
2023-05-20T02:09:14.165Z,2.25
2023-05-20T02:11:40.671Z,2.28
2023-05-20T02:14:08.479Z,2.50
2023-05-20T02:16:35.123Z,2.50
2023-05-20T02:19:01.718Z,2.58
2023-05-20T02:21:28.208Z,2.50
2023-05-20T02:23:54.655Z,2.55
2023-05-20T02:26:21.109Z,2.20
2023-05-20T02:28:47.521Z,2.50
2023-05-20T02:31:15.262Z,2.22
2023-05-20T02:33:41.744Z,2.50
2023-05-20T02:36:08.286Z,2.55
2023-05-20T02:38:34.768Z,2.25
2023-05-20T02:41:01.218Z,2.40
2023-05-20T02:43:27.693Z,2.03
2023-05-20T02:45:54.142Z,2.45
2023-05-20T02:48:22.113Z,2.40
2023-05-20T02:50:48.739Z,2.70
2023-05-20T02:53:15.267Z,2.28
2023-05-20T02:55:41.777Z,2.60
2023-05-20T02:58:08.247Z,2.38
2023-05-20T03:00:34.753Z,2.72
2023-05-20T03:03:01.206Z,2.65
2023-05-20T03:05:29.082Z,2.90
2023-05-20T03:07:55.921Z,2.20
2023-05-20T03:10:22.585Z,2.63
2023-05-20T03:12:49.015Z,2.53
2023-05-20T03:15:15.584Z,2.72
2023-05-20T03:17:42.086Z,2.40
2023-05-20T03:20:09.075Z,2.50
2023-05-20T03:22:37.005Z,2.33
2023-05-20T03:25:04.026Z,2.25
2023-05-20T03:27:30.480Z,2.50
2023-05-20T03:29:57.001Z,2.95
2023-05-20T03:32:23.477Z,2.50
2023-05-20T03:34:49.973Z,2.47
2023-05-20T03:37:16.403Z,2.38
2023-05-20T03:39:44.142Z,2.80
2023-05-20T03:42:10.702Z,2.40
2023-05-20T03:44:37.165Z,2.78
2023-05-20T03:47:03.761Z,2.65
2023-05-20T03:49:30.250Z,2.67
2023-05-20T03:51:56.838Z,2.50
2023-05-20T03:54:23.346Z,2.75
2023-05-20T03:56:51.070Z,2.63
2023-05-20T03:59:18.590Z,2.50
2023-05-20T04:01:45.072Z,2.40
2023-05-20T04:04:11.618Z,2.45
2023-05-20T04:06:38.095Z,2.45
2023-05-20T04:09:04.536Z,2.53
2023-05-20T04:11:31.026Z,2.72
2023-05-20T04:13:58.754Z,2.20
2023-05-20T04:16:25.229Z,2.63
2023-05-20T04:18:51.785Z,2.40
2023-05-20T04:21:18.294Z,2.35
2023-05-20T04:23:44.866Z,2.50
2023-05-20T04:26:11.392Z,2.65
2023-05-20T04:28:37.847Z,2.70
2023-05-20T04:31:05.728Z,2.95
2023-05-20T04:33:32.418Z,2.55
2023-05-20T04:35:59.436Z,2.60
2023-05-20T04:38:27.007Z,2.42
2023-05-20T04:40:55.889Z,2.95
2023-05-20T04:43:22.346Z,2.80
2023-05-20T04:45:48.799Z,2.70
2023-05-20T04:48:16.511Z,2.40
2023-05-20T04:50:42.948Z,2.88
2023-05-20T04:53:09.445Z,2.80
2023-05-20T04:55:36.085Z,2.72
2023-05-20T04:58:02.652Z,2.90
2023-05-20T05:00:29.186Z,2.78
2023-05-20T05:02:55.773Z,2.83
2023-05-20T05:05:23.588Z,2.83
2023-05-20T05:07:50.087Z,3.00
2023-05-20T05:10:16.704Z,2.65
2023-05-20T05:12:43.161Z,3.33
2023-05-20T05:15:10.289Z,2.72
2023-05-20T05:17:36.808Z,2.75
2023-05-20T05:20:03.891Z,2.95
2023-05-20T05:22:31.651Z,3.05
2023-05-20T05:24:58.151Z,2.80
2023-05-20T05:27:24.764Z,2.63
2023-05-20T05:29:51.230Z,2.40
2023-05-20T05:32:17.692Z,2.83
2023-05-20T05:34:44.195Z,2.90
2023-05-20T05:37:10.727Z,2.92
2023-05-20T05:39:38.519Z,2.60
2023-05-20T05:42:05.489Z,2.58
2023-05-20T05:44:32.034Z,2.70
2023-05-20T05:46:58.557Z,3.50
2023-05-20T05:49:25.057Z,2.88
2023-05-20T05:51:51.726Z,2.90
2023-05-20T05:54:18.224Z,2.78
2023-05-20T05:56:45.982Z,2.92
2023-05-20T05:59:12.643Z,2.67
2023-05-20T06:01:39.205Z,3.30
2023-05-20T06:04:05.870Z,3.15
2023-05-20T06:06:34.343Z,2.92
2023-05-20T06:09:00.805Z,3.05
2023-05-20T06:11:27.367Z,2.85
2023-05-20T06:13:55.114Z,3.13
2023-05-20T06:16:21.886Z,2.95
2023-05-20T06:18:48.579Z,3.40
2023-05-20T06:21:15.043Z,2.90
2023-05-20T06:23:41.763Z,3.08
2023-05-20T06:26:08.454Z,2.95
2023-05-20T06:28:34.893Z,3.17
2023-05-20T06:31:02.845Z,3.08
2023-05-20T06:33:29.350Z,2.80
2023-05-20T06:35:57.070Z,3.17
2023-05-20T06:38:23.666Z,3.13
2023-05-20T06:40:50.648Z,3.30
2023-05-20T06:43:17.422Z,3.30
2023-05-20T06:45:43.986Z,3.10
2023-05-20T06:48:11.767Z,2.83
2023-05-20T06:50:38.382Z,3.25
2023-05-20T06:53:04.888Z,3.17
2023-05-20T06:55:31.485Z,3.30
2023-05-20T06:57:57.990Z,3.03
2023-05-20T07:00:24.510Z,3.50
2023-05-20T07:02:51.100Z,3.20
2023-05-20T07:05:18.936Z,3.38
2023-05-20T07:07:45.426Z,3.17
2023-05-20T07:10:12.009Z,3.08
2023-05-20T07:12:38.462Z,3.53
2023-05-20T07:15:05.437Z,2.95
2023-05-20T07:17:31.985Z,2.85
2023-05-20T07:19:58.470Z,2.97
2023-05-20T07:22:26.220Z,3.40
2023-05-20T07:24:52.721Z,3.38
2023-05-20T07:27:19.249Z,3.60
2023-05-20T07:29:45.858Z,3.17
2023-05-20T07:32:12.305Z,3.50
2023-05-20T07:34:38.851Z,3.25
2023-05-20T07:37:05.398Z,3.45
2023-05-20T07:39:33.196Z,3.67
2023-05-20T07:41:59.630Z,3.78
2023-05-20T07:44:26.146Z,3.30
2023-05-20T07:46:52.639Z,3.53
2023-05-20T07:49:19.158Z,3.55
2023-05-20T07:51:45.693Z,3.67
2023-05-20T07:54:12.251Z,3.13
2023-05-20T07:56:40.062Z,3.45
2023-05-20T07:59:06.674Z,3.25
2023-05-20T08:01:34.076Z,3.47
2023-05-20T08:04:00.742Z,3.58
2023-05-20T08:06:29.661Z,3.33
2023-05-20T08:08:56.428Z,3.78
2023-05-20T08:11:22.904Z,3.50
2023-05-20T08:13:50.717Z,4.10
2023-05-20T08:16:17.200Z,3.53
2023-05-20T08:18:43.793Z,3.40
2023-05-20T08:21:10.318Z,3.42
2023-05-20T08:23:39.551Z,3.75
2023-05-20T08:26:07.112Z,3.40
2023-05-20T08:28:33.626Z,4.00
2023-05-20T08:31:02.625Z,3.83
2023-05-20T08:33:29.148Z,3.70
2023-05-20T08:35:55.593Z,3.58
2023-05-20T08:38:22.163Z,3.58
2023-05-20T08:40:51.933Z,3.33
2023-05-20T08:43:18.526Z,3.72
2023-05-20T08:45:45.094Z,3.60
2023-05-20T08:48:12.988Z,3.47
2023-05-20T08:50:39.499Z,3.58
2023-05-20T08:53:05.987Z,3.38
2023-05-20T08:55:37.914Z,3.40
2023-05-20T08:58:04.454Z,3.53
2023-05-20T09:00:31.031Z,2.97
2023-05-20T09:03:00.899Z,3.33
2023-05-20T09:05:28.984Z,3.38
2023-05-20T09:08:05.443Z,3.20
2023-05-20T09:10:32.568Z,3.58
2023-05-20T09:13:00.397Z,3.58
2023-05-20T09:15:26.916Z,3.72
2023-05-20T09:17:53.413Z,3.47
2023-05-20T09:20:22.139Z,3.08
2023-05-20T09:22:52.632Z,3.28
2023-05-20T09:25:21.657Z,3.55
2023-05-20T09:27:50.402Z,3.08
2023-05-20T09:30:19.427Z,3.25
2023-05-20T09:32:53.109Z,3.40
2023-05-20T09:35:20.283Z,3.08
2023-05-20T09:37:48.536Z,2.90
2023-05-20T09:40:17.450Z,3.30
2023-05-20T09:42:50.491Z,3.10
2023-05-20T09:45:16.991Z,3.30
2023-05-20T09:47:43.717Z,3.28
2023-05-20T09:50:10.312Z,3.67
2023-05-20T09:52:37.729Z,3.28
2023-05-20T09:55:05.560Z,3.30
2023-05-20T09:57:34.021Z,3.20
2023-05-20T10:00:01.158Z,3.50
2023-05-20T10:02:28.238Z,3.47
2023-05-20T10:04:56.624Z,3.00
2023-05-20T10:07:41.764Z,3.35
2023-05-20T10:10:21.764Z,3.30
2023-05-20T10:12:59.992Z,3.03
2023-05-20T10:15:33.668Z,3.00
2023-05-20T10:20:32.637Z,3.83
2023-05-20T10:22:59.122Z,3.30
2023-05-20T10:25:27.248Z,3.70
2023-05-20T10:28:05.170Z,3.33
2023-05-20T10:30:31.614Z,3.08
2023-05-20T10:33:03.477Z,3.03
2023-05-20T10:35:30.219Z,2.80
2023-05-20T10:38:08.035Z,3.50
2023-05-20T10:40:35.044Z,3.00
2023-05-20T10:43:10.999Z,2.88
2023-05-20T10:45:48.050Z,3.33
2023-05-20T10:48:21.086Z,3.05
2023-05-20T10:50:47.821Z,3.17
2023-05-20T10:53:29.257Z,3.00
2023-05-20T10:55:59.139Z,3.05
2023-05-20T10:58:27.005Z,2.92
2023-05-20T11:00:55.182Z,3.08
2023-05-20T11:03:22.810Z,3.15
2023-05-20T11:05:50.839Z,3.20
2023-05-20T11:08:28.647Z,2.97
2023-05-20T11:10:56.833Z,3.47
2023-05-20T11:13:23.580Z,3.40
2023-05-20T11:15:52.528Z,3.35
2023-05-20T11:18:19.177Z,3.42
2023-05-20T11:20:46.942Z,3.60
2023-05-20T11:23:14.931Z,3.97
2023-05-20T11:25:41.554Z,3.03
2023-05-20T11:28:12.284Z,3.00
2023-05-20T11:30:38.940Z,3.40
2023-05-20T11:33:06.846Z,3.40
2023-05-20T11:35:33.383Z,3.42
2023-05-20T11:38:02.991Z,3.22
2023-05-20T11:40:38.932Z,3.05
2023-05-20T11:43:11.330Z,3.13
2023-05-20T11:45:39.866Z,2.88
2023-05-20T11:48:08.233Z,3.47
2023-05-20T11:50:36.040Z,2.95
2023-05-20T11:53:03.605Z,3.22
2023-05-20T11:55:32.025Z,3.35
2023-05-20T11:57:59.085Z,3.17
2023-05-20T12:00:27.604Z,3.03
2023-05-20T12:02:55.724Z,3.08
2023-05-20T12:05:23.565Z,2.80
2023-05-20T12:07:50.040Z,3.28
2023-05-20T12:10:16.552Z,3.10
2023-05-20T12:12:44.022Z,2.95
2023-05-20T12:15:11.094Z,3.00
2023-05-20T12:17:46.201Z,3.35
2023-05-20T12:20:14.207Z,2.50
2023-05-20T12:22:42.233Z,2.75
2023-05-20T12:25:10.793Z,2.92
2023-05-20T12:27:37.207Z,2.88
2023-05-20T12:30:04.244Z,2.92
2023-05-20T12:32:30.906Z,2.88
2023-05-20T12:34:57.354Z,3.28
2023-05-20T12:37:23.860Z,3.28
2023-05-20T12:39:51.739Z,3.10
2023-05-20T12:42:18.227Z,3.50
2023-05-20T12:44:44.707Z,3.00
2023-05-20T12:47:11.307Z,2.97
2023-05-20T12:49:37.872Z,3.53
2023-05-20T12:52:08.643Z,2.80
2023-05-20T12:54:38.534Z,3.60
2023-05-20T12:57:06.420Z,3.10
2023-05-20T12:59:32.878Z,2.85
2023-05-20T13:01:59.373Z,3.00
2023-05-20T13:04:25.910Z,3.08
2023-05-20T13:06:52.393Z,2.67
2023-05-20T13:09:18.833Z,2.90
2023-05-20T13:11:45.316Z,2.78
2023-05-20T13:14:13.071Z,3.00
2023-05-20T13:16:39.610Z,2.70
2023-05-20T13:19:06.178Z,3.15
2023-05-20T13:21:32.820Z,3.47
2023-05-20T13:23:59.252Z,2.65
2023-05-20T13:26:25.701Z,3.53
2023-05-20T13:28:52.148Z,3.13
2023-05-20T13:31:19.935Z,3.53
2023-05-20T13:33:46.584Z,2.80
2023-05-20T13:36:13.234Z,3.20
2023-05-20T13:38:39.673Z,2.72
2023-05-20T13:41:06.159Z,2.72
2023-05-20T13:43:32.613Z,2.95
2023-05-20T13:45:59.176Z,3.35
2023-05-20T13:48:27.001Z,3.10
2023-05-20T13:50:53.467Z,2.80
2023-05-20T13:53:20.064Z,2.97
2023-05-20T13:55:46.563Z,3.13
2023-05-20T13:58:12.981Z,3.45
2023-05-20T14:00:39.434Z,3.38
2023-05-20T14:03:06.056Z,3.53
2023-05-20T14:05:34.274Z,3.00
2023-05-20T14:08:01.617Z,3.20
2023-05-20T14:10:28.212Z,2.67
2023-05-20T14:12:57.115Z,2.97
2023-05-20T14:15:23.553Z,3.15
2023-05-20T14:17:50.257Z,3.15
2023-05-20T14:20:16.901Z,2.63
2023-05-20T14:22:44.722Z,2.90
2023-05-20T14:25:11.301Z,3.33
2023-05-20T14:27:37.786Z,2.90
2023-05-20T14:30:05.052Z,2.70
2023-05-20T14:32:31.561Z,2.90
2023-05-20T14:34:58.100Z,3.08
2023-05-20T14:37:24.530Z,2.67
2023-05-20T14:39:52.381Z,2.80
2023-05-20T14:42:18.866Z,2.83
2023-05-20T14:44:45.326Z,3.00
2023-05-20T14:47:12.121Z,2.85
2023-05-20T14:49:38.553Z,3.38
2023-05-20T14:52:05.581Z,2.80
2023-05-20T14:54:32.039Z,3.00
2023-05-20T14:56:59.958Z,3.30
2023-05-20T14:59:26.645Z,3.08
2023-05-20T15:01:53.134Z,2.80
2023-05-20T15:04:19.671Z,2.78
2023-05-20T15:06:46.351Z,2.83
2023-05-20T15:09:12.872Z,2.92
2023-05-20T15:11:39.290Z,2.58
2023-05-20T15:14:07.204Z,2.90
2023-05-20T15:16:33.754Z,2.97
2023-05-20T15:19:01.051Z,3.00
2023-05-20T15:21:27.593Z,2.80
2023-05-20T15:23:54.140Z,2.75
2023-05-20T15:26:20.636Z,2.50
2023-05-20T15:28:47.185Z,2.80
2023-05-20T15:31:15.068Z,2.55
2023-05-20T15:33:41.616Z,2.50
2023-05-20T15:36:08.267Z,2.38
2023-05-20T15:38:34.753Z,2.85
2023-05-20T15:41:01.198Z,2.78
2023-05-20T15:43:27.642Z,2.90
2023-05-20T15:45:54.160Z,2.40
2023-05-20T15:48:21.895Z,2.60
2023-05-20T15:50:48.364Z,2.85
2023-05-20T15:53:15.173Z,2.53
2023-05-20T15:55:42.853Z,2.33
2023-05-20T15:58:09.442Z,2.25
2023-05-20T16:00:36.195Z,2.47
2023-05-20T16:03:02.940Z,2.70
2023-05-20T16:05:30.765Z,2.30
2023-05-20T16:07:57.211Z,2.45
2023-05-20T16:10:26.025Z,2.22
2023-05-20T16:12:52.816Z,2.55
2023-05-20T16:15:19.244Z,2.28
2023-05-20T16:17:45.761Z,2.30
2023-05-20T16:20:12.281Z,2.25
2023-05-20T16:22:40.054Z,2.55
2023-05-20T16:25:06.842Z,2.95
2023-05-20T16:27:33.497Z,2.28
2023-05-20T16:30:00.047Z,2.70
2023-05-20T16:32:26.883Z,2.85
2023-05-20T16:34:53.476Z,2.45
2023-05-20T16:37:20.078Z,2.33
2023-05-20T16:39:47.954Z,2.20
2023-05-20T16:42:14.462Z,2.72
2023-05-20T16:44:40.912Z,2.40
2023-05-20T16:47:08.146Z,2.42
2023-05-20T16:49:34.883Z,2.45
2023-05-20T16:52:01.514Z,2.22
2023-05-20T16:54:28.062Z,2.10
2023-05-20T16:56:55.824Z,2.13
2023-05-20T16:59:22.337Z,2.10
2023-05-20T17:01:48.795Z,2.15
2023-05-20T17:04:15.412Z,2.60
2023-05-20T17:06:42.021Z,2.40
2023-05-20T17:09:08.506Z,2.08
2023-05-20T17:11:35.042Z,2.03
2023-05-20T17:14:02.796Z,2.17
2023-05-20T17:16:29.442Z,2.10
2023-05-20T17:18:55.939Z,2.28
2023-05-20T17:21:22.391Z,2.35
2023-05-20T17:23:49.038Z,2.05
2023-05-20T17:26:16.101Z,1.83
2023-05-20T17:28:42.819Z,1.98
2023-05-20T17:31:10.560Z,1.80
2023-05-20T17:33:37.149Z,1.70
2023-05-20T17:36:04.141Z,2.20
2023-05-20T17:38:30.735Z,2.13
2023-05-20T17:40:57.212Z,2.00
2023-05-20T17:43:23.636Z,1.83
2023-05-20T17:45:50.178Z,2.17
2023-05-20T17:48:18.163Z,1.80
2023-05-20T17:50:44.682Z,1.75
2023-05-20T17:53:11.185Z,1.83
2023-05-20T17:55:37.645Z,1.92
2023-05-20T17:58:04.174Z,2.13
2023-05-20T18:00:30.645Z,1.67
2023-05-20T18:02:57.166Z,1.92
2023-05-20T18:05:25.017Z,1.80
2023-05-20T18:07:51.681Z,1.92
2023-05-20T18:10:18.759Z,1.80
2023-05-20T18:12:45.294Z,2.22
2023-05-20T18:15:11.873Z,1.95
2023-05-20T18:17:40.224Z,1.83
2023-05-20T18:20:07.869Z,2.08
2023-05-20T18:22:35.658Z,1.75
2023-05-20T18:25:02.398Z,1.88
2023-05-20T18:27:28.842Z,2.20
2023-05-20T18:29:55.290Z,1.95
2023-05-20T18:32:21.786Z,2.25
2023-05-20T18:34:48.226Z,1.98
2023-05-20T18:37:14.638Z,1.77
2023-05-20T18:39:42.510Z,2.03
2023-05-20T18:42:09.108Z,2.00
2023-05-20T18:44:35.571Z,1.80
2023-05-20T18:47:02.552Z,2.33
2023-05-20T18:49:29.016Z,2.00
2023-05-20T18:51:55.511Z,2.25
2023-05-20T18:54:21.990Z,1.80
2023-05-20T18:56:49.962Z,2.00
2023-05-20T18:59:16.487Z,2.00
2023-05-20T19:01:42.947Z,2.13
2023-05-20T19:04:09.456Z,2.13
2023-05-20T19:06:35.939Z,2.35
2023-05-20T19:09:02.446Z,2.05
2023-05-20T19:11:29.421Z,2.17
2023-05-20T19:13:58.008Z,2.20
2023-05-20T19:16:25.386Z,2.10
2023-05-20T19:18:51.833Z,2.10
2023-05-20T19:21:18.275Z,2.00
2023-05-20T19:23:44.743Z,2.28
2023-05-20T19:26:11.228Z,1.92
2023-05-20T19:28:37.697Z,2.00
2023-05-20T19:31:05.509Z,2.03
2023-05-20T19:33:32.027Z,2.10
2023-05-20T19:35:58.616Z,2.38
2023-05-20T19:38:25.062Z,2.20
2023-05-20T19:40:51.635Z,2.30
2023-05-20T19:43:18.177Z,2.20
2023-05-20T19:45:44.781Z,1.88
2023-05-20T19:48:12.652Z,2.28
2023-05-20T19:50:39.159Z,2.00
2023-05-20T19:53:05.638Z,2.45
2023-05-20T19:55:32.088Z,1.92
2023-05-20T19:57:58.527Z,2.10
2023-05-20T20:00:25.121Z,2.35
2023-05-20T20:02:51.667Z,2.22
2023-05-20T20:05:21.533Z,1.98
2023-05-20T20:07:49.535Z,1.80
2023-05-20T20:10:16.012Z,2.00
2023-05-20T20:12:42.466Z,2.33
2023-05-20T20:15:10.040Z,2.20
2023-05-20T20:17:36.738Z,1.90
2023-05-20T20:20:03.609Z,1.83
2023-05-20T20:22:31.323Z,2.00
2023-05-20T20:24:57.837Z,2.05
2023-05-20T20:27:24.267Z,2.08
2023-05-20T20:29:50.797Z,2.38
2023-05-20T20:32:17.306Z,1.90
2023-05-20T20:34:43.834Z,2.25
2023-05-20T20:37:10.287Z,1.88
2023-05-20T20:39:38.074Z,1.98
2023-05-20T20:42:04.825Z,2.25
2023-05-20T20:44:31.287Z,2.25
2023-05-20T20:46:57.909Z,2.17
2023-05-20T20:49:26.327Z,2.03
2023-05-20T20:51:54.194Z,2.25
2023-05-20T20:54:20.709Z,2.13
2023-05-20T20:56:48.498Z,2.10
2023-05-20T20:59:14.976Z,1.88
2023-05-20T21:01:41.689Z,1.92
2023-05-20T21:04:08.874Z,2.30
2023-05-20T21:06:35.365Z,2.33
2023-05-20T21:09:01.822Z,2.50
2023-05-20T21:11:28.404Z,2.05
2023-05-20T21:13:56.200Z,2.22
2023-05-20T21:16:22.974Z,1.98
2023-05-20T21:18:49.673Z,2.10
2023-05-20T21:21:16.430Z,2.25
2023-05-20T21:23:42.927Z,2.25
2023-05-20T21:26:09.432Z,2.00
2023-05-20T21:28:35.874Z,2.03
2023-05-20T21:31:03.709Z,1.90
2023-05-20T21:33:30.247Z,2.30
2023-05-20T21:35:57.008Z,1.83
2023-05-20T21:38:23.453Z,2.30
2023-05-20T21:40:49.926Z,2.30
2023-05-20T21:43:16.417Z,2.00
2023-05-20T21:45:43.031Z,2.25
2023-05-20T21:48:10.720Z,2.05
2023-05-20T21:50:37.283Z,2.08
2023-05-20T21:53:03.847Z,2.15
2023-05-20T21:55:30.304Z,2.65
2023-05-20T21:57:56.800Z,2.13
2023-05-20T22:00:23.257Z,2.15
2023-05-20T22:02:49.800Z,2.13
2023-05-20T22:05:17.710Z,2.70
2023-05-20T22:07:44.189Z,2.17
2023-05-20T22:10:11.093Z,2.38
2023-05-20T22:12:37.560Z,2.60
2023-05-20T22:15:05.178Z,2.30
2023-05-20T22:17:31.677Z,2.55
2023-05-20T22:19:58.137Z,2.40
2023-05-20T22:22:26.349Z,1.90
2023-05-20T22:24:52.853Z,2.08
2023-05-20T22:27:19.419Z,2.28
2023-05-20T22:29:45.835Z,2.30
2023-05-20T22:32:12.279Z,2.25
2023-05-20T22:34:38.684Z,2.05
2023-05-20T22:37:05.182Z,2.38
2023-05-20T22:39:32.984Z,2.00
2023-05-20T22:41:59.473Z,2.13
2023-05-20T22:44:25.968Z,2.00
2023-05-20T22:46:52.413Z,2.28
2023-05-20T22:49:19.063Z,2.22
2023-05-20T22:51:45.603Z,1.88
2023-05-20T22:54:12.195Z,2.10
2023-05-20T22:56:40.021Z,2.28
2023-05-20T22:59:06.461Z,1.90
2023-05-20T23:01:33.029Z,2.40
2023-05-20T23:03:59.530Z,1.70
2023-05-20T23:06:26.033Z,2.40
2023-05-20T23:08:52.548Z,2.03
2023-05-20T23:11:19.027Z,2.13
2023-05-20T23:13:46.804Z,1.80
2023-05-20T23:16:13.453Z,2.10
2023-05-20T23:18:39.926Z,2.00
2023-05-20T23:21:06.344Z,2.00
2023-05-20T23:23:32.838Z,2.05
2023-05-20T23:26:00.058Z,2.15
2023-05-20T23:28:26.802Z,2.30
2023-05-20T23:30:54.684Z,1.98
2023-05-20T23:33:25.195Z,2.58
2023-05-20T23:35:52.281Z,2.47
2023-05-20T23:38:18.789Z,2.05
2023-05-20T23:40:45.295Z,2.60
2023-05-20T23:43:11.792Z,2.50
2023-05-20T23:45:38.332Z,2.20
2023-05-20T23:48:06.714Z,2.45
2023-05-20T23:50:33.172Z,1.98
2023-05-20T23:52:59.621Z,2.40
2023-05-20T23:55:26.150Z,2.33
2023-05-20T23:57:52.698Z,2.35
